createdAt,value
2022-09-28T00:01:19.505Z,35.78
2022-09-28T00:03:47.343Z,34.80
2022-09-28T00:06:16.747Z,35.50
2022-09-28T00:08:43.329Z,31.88
2022-09-28T00:11:13.799Z,35.33
2022-09-28T00:13:41.447Z,36.30
2022-09-28T00:16:11.418Z,33.10
2022-09-28T00:18:37.951Z,32.33
2022-09-28T00:21:08.697Z,30.98
2022-09-28T00:23:56.105Z,31.55
2022-09-28T00:26:23.626Z,30.92
2022-09-28T00:29:00.489Z,30.70
2022-09-28T00:31:30.239Z,27.45
2022-09-28T00:33:57.289Z,30.35
2022-09-28T00:36:28.511Z,21.73
2022-09-28T00:38:58.681Z,25.38
2022-09-28T00:41:27.619Z,30.20
2022-09-28T00:44:40.197Z,28.58
2022-09-28T00:47:34.761Z,25.02
2022-09-28T00:50:12.322Z,26.27
2022-09-28T00:52:47.204Z,27.42
2022-09-28T00:55:17.578Z,27.52
2022-09-28T00:57:49.383Z,27.10
2022-09-28T01:00:15.989Z,24.95
2022-09-28T01:02:44.176Z,26.88
2022-09-28T01:05:11.467Z,25.45
2022-09-28T01:07:38.824Z,25.17
2022-09-28T01:10:05.914Z,27.20
2022-09-28T01:12:32.402Z,27.48
2022-09-28T01:15:00.598Z,21.65
2022-09-28T01:17:57.447Z,27.73
2022-09-28T01:20:34.548Z,21.98
2022-09-28T01:23:44.345Z,22.30
2022-09-28T01:26:36.569Z,24.33
2022-09-28T01:29:15.380Z,21.90
2022-09-28T01:31:51.289Z,20.73
2022-09-28T01:34:25.422Z,21.40
2022-09-28T01:36:56.402Z,22.27
2022-09-28T01:39:34.469Z,25.15
2022-09-28T01:42:05.607Z,22.85
2022-09-28T01:44:39.716Z,23.30
2022-09-28T01:47:11.327Z,23.27
2022-09-28T01:49:43.929Z,24.63
2022-09-28T01:52:23.062Z,18.95
2022-09-28T01:54:57.039Z,26.73
2022-09-28T01:57:40.893Z,24.20
2022-09-28T02:00:13.386Z,30.35
2022-09-28T02:03:01.857Z,21.98
2022-09-28T02:05:34.913Z,25.50
2022-09-28T02:08:07.493Z,25.40
2022-09-28T02:10:58.429Z,22.23
2022-09-28T02:13:40.801Z,27.05
2022-09-28T02:16:16.541Z,24.85
2022-09-28T02:18:44.030Z,23.30
2022-09-28T02:21:17.547Z,26.27
2022-09-28T02:23:53.904Z,26.17
2022-09-28T02:26:24.726Z,28.10
2022-09-28T02:28:51.215Z,28.63
2022-09-28T02:31:18.058Z,31.75
2022-09-28T02:33:46.309Z,31.55
2022-09-28T02:36:12.978Z,27.40
2022-09-28T02:38:39.453Z,44.25
2022-09-28T02:41:41.897Z,44.47
2022-09-28T02:44:20.485Z,46.92
2022-09-28T02:46:58.802Z,45.78
2022-09-28T02:49:57.669Z,42.80
2022-09-28T02:52:59.400Z,28.60
2022-09-28T02:55:48.323Z,33.47
2022-09-28T02:58:25.373Z,30.85
2022-09-28T03:01:10.642Z,29.73
2022-09-28T03:03:55.956Z,33.88
2022-09-28T03:06:30.793Z,29.83
2022-09-28T03:09:07.324Z,35.20
2022-09-28T03:11:40.754Z,32.90
2022-09-28T03:14:07.234Z,29.50
2022-09-28T03:16:33.765Z,27.95
2022-09-28T03:19:00.275Z,32.03
2022-09-28T03:21:26.785Z,27.98
2022-09-28T03:23:53.276Z,34.42
2022-09-28T03:26:19.807Z,30.70
2022-09-28T03:28:46.484Z,32.95
2022-09-28T03:31:12.960Z,29.17
2022-09-28T03:33:39.481Z,29.10
2022-09-28T03:36:06.141Z,30.52
2022-09-28T03:38:32.653Z,33.03
2022-09-28T03:41:00.517Z,33.63
2022-09-28T03:43:29.596Z,30.15
2022-09-28T03:45:58.364Z,26.48
2022-09-28T03:48:32.041Z,35.15
2022-09-28T03:51:01.805Z,34.37
2022-09-28T03:53:31.548Z,33.35
2022-09-28T03:56:03.745Z,32.92
2022-09-28T03:58:30.200Z,32.60
2022-09-28T04:01:05.411Z,31.88
2022-09-28T04:05:58.872Z,36.47
2022-09-28T04:08:25.453Z,30.98
2022-09-28T04:10:52.087Z,29.77
2022-09-28T04:13:18.567Z,33.08
2022-09-28T04:15:52.944Z,27.58
2022-09-28T04:18:19.828Z,28.63
2022-09-28T04:20:48.023Z,31.65
2022-09-28T04:23:15.446Z,31.52
2022-09-28T04:25:42.252Z,30.80
2022-09-28T04:28:27.623Z,37.42
2022-09-28T04:30:54.060Z,33.25
2022-09-28T04:33:20.518Z,31.17
2022-09-28T04:35:46.971Z,32.85
2022-09-28T04:38:13.431Z,37.95
2022-09-28T04:40:40.147Z,37.70
2022-09-28T04:43:06.677Z,45.88
2022-09-28T04:45:33.189Z,36.95
2022-09-28T04:47:59.692Z,37.38
2022-09-28T04:50:26.168Z,39.50
2022-09-28T04:52:52.642Z,43.22
2022-09-28T04:55:20.538Z,40.65
2022-09-28T04:57:46.973Z,43.97
2022-09-28T05:00:13.989Z,41.72
2022-09-28T05:02:40.454Z,42.80
2022-09-28T05:05:07.355Z,46.40
2022-09-28T05:07:36.831Z,46.70
2022-09-28T05:10:03.536Z,50.67
2022-09-28T05:12:29.944Z,45.17
2022-09-28T05:14:56.650Z,47.35
2022-09-28T05:17:23.339Z,41.00
2022-09-28T05:19:49.814Z,46.25
2022-09-28T05:22:16.445Z,44.95
2022-09-28T05:24:42.952Z,48.97
2022-09-28T05:27:09.435Z,42.03
2022-09-28T05:29:35.895Z,46.05
2022-09-28T05:32:02.463Z,45.03
2022-09-28T05:34:29.207Z,43.35
2022-09-28T05:36:55.752Z,44.13
2022-09-28T05:39:22.228Z,42.83
2022-09-28T05:41:49.231Z,44.20
2022-09-28T05:44:15.710Z,45.80
2022-09-28T05:46:42.195Z,41.90
2022-09-28T05:49:08.607Z,45.90
2022-09-28T05:51:35.036Z,52.30
2022-09-28T05:54:05.694Z,46.63
2022-09-28T05:56:33.030Z,46.38
2022-09-28T05:58:59.567Z,45.53
2022-09-28T06:01:26.298Z,45.58
2022-09-28T06:03:52.773Z,41.42
2022-09-28T06:06:19.191Z,43.70
2022-09-28T06:08:46.402Z,47.47
2022-09-28T06:11:12.913Z,45.80
2022-09-28T06:13:42.380Z,45.30
2022-09-28T06:16:10.484Z,45.88
2022-09-28T06:18:36.985Z,47.53
2022-09-28T06:21:03.917Z,42.45
2022-09-28T06:23:30.407Z,46.20
2022-09-28T06:25:59.114Z,44.47
2022-09-28T06:28:26.885Z,45.95
2022-09-28T06:30:54.091Z,44.63
2022-09-28T06:33:20.698Z,44.88
2022-09-28T06:35:47.874Z,41.15
2022-09-28T06:38:14.369Z,44.70
2022-09-28T06:40:40.874Z,49.88
2022-09-28T06:43:11.210Z,27.10
2022-09-28T06:45:38.658Z,45.92
2022-09-28T06:48:05.665Z,42.28
2022-09-28T06:50:35.892Z,42.70
2022-09-28T06:53:02.404Z,47.42
2022-09-28T06:55:29.651Z,45.35
2022-09-28T06:58:01.331Z,44.80
2022-09-28T07:00:28.826Z,39.25
2022-09-28T07:02:55.402Z,40.38
2022-09-28T07:05:26.682Z,42.45
2022-09-28T07:07:57.362Z,48.15
2022-09-28T07:10:26.973Z,50.85
2022-09-28T07:12:54.589Z,44.55
2022-09-28T07:15:21.965Z,45.40
2022-09-28T07:18:00.379Z,50.65
2022-09-28T07:20:29.483Z,50.63
2022-09-28T07:23:12.878Z,47.55
2022-09-28T07:25:47.884Z,50.38
2022-09-28T07:28:15.321Z,51.67
2022-09-28T07:30:44.248Z,53.00
2022-09-28T07:33:12.689Z,54.80
2022-09-28T07:35:39.250Z,45.75
2022-09-28T07:38:07.392Z,49.00
2022-09-28T07:40:54.221Z,45.25
2022-09-28T07:43:21.772Z,49.25
2022-09-28T07:45:51.121Z,52.00
2022-09-28T07:48:19.232Z,49.05
2022-09-28T07:50:51.785Z,49.75
2022-09-28T07:53:22.870Z,44.45
2022-09-28T07:55:57.365Z,52.40
2022-09-28T07:58:23.824Z,47.83
2022-09-28T08:00:50.640Z,44.92
2022-09-28T08:03:18.596Z,46.75
2022-09-28T08:05:47.370Z,42.92
2022-09-28T08:08:14.966Z,41.33
2022-09-28T08:10:47.276Z,43.55
2022-09-28T08:13:16.284Z,32.67
2022-09-28T08:15:42.896Z,39.85
2022-09-28T08:18:09.917Z,40.67
2022-09-28T08:20:55.276Z,38.42
2022-09-28T08:23:21.827Z,41.22
2022-09-28T08:25:49.360Z,40.63
2022-09-28T08:28:19.913Z,41.55
2022-09-28T08:30:47.627Z,35.95
2022-09-28T08:33:15.566Z,21.23
2022-09-28T08:35:42.524Z,34.25
2022-09-28T08:38:09.195Z,25.25
2022-09-28T08:41:00.142Z,34.80
2022-09-28T08:43:41.346Z,28.50
2022-09-28T08:46:11.175Z,31.88
2022-09-28T08:49:01.082Z,26.52
2022-09-28T08:51:50.117Z,37.35
2022-09-28T08:54:35.664Z,17.88
2022-09-28T08:57:17.356Z,25.08
2022-09-28T08:59:49.387Z,28.88
2022-09-28T09:02:20.744Z,24.27
2022-09-28T09:04:47.664Z,31.70
2022-09-28T09:07:31.860Z,32.00
2022-09-28T09:10:16.744Z,31.35
2022-09-28T09:13:03.445Z,28.57
2022-09-28T09:15:52.203Z,26.92
2022-09-28T09:18:49.678Z,26.33
2022-09-28T09:21:42.562Z,26.38
2022-09-28T09:24:39.211Z,27.98
2022-09-28T09:27:28.675Z,18.90
2022-09-28T09:30:04.275Z,29.60
2022-09-28T09:33:05.158Z,28.67
2022-09-28T09:36:02.727Z,22.55
2022-09-28T09:38:29.161Z,22.63
2022-09-28T09:41:19.720Z,24.33
2022-09-28T09:44:11.622Z,21.75
2022-09-28T09:46:51.735Z,22.33
2022-09-28T09:49:24.726Z,20.38
2022-09-28T09:52:11.203Z,26.33
2022-09-28T09:54:40.607Z,23.55
2022-09-28T09:57:29.303Z,24.30
2022-09-28T09:59:58.991Z,22.10
2022-09-28T10:02:25.493Z,17.15
2022-09-28T10:04:59.886Z,23.85
2022-09-28T10:07:53.582Z,10.70
2022-09-28T10:10:28.627Z,17.65
2022-09-28T10:12:56.330Z,22.10
2022-09-28T10:15:28.307Z,20.73
2022-09-28T10:17:57.152Z,16.52
2022-09-28T10:20:25.552Z,16.38
2022-09-28T10:22:52.366Z,13.80
2022-09-28T10:25:19.998Z,14.35
2022-09-28T10:27:49.546Z,13.13
2022-09-28T10:30:25.337Z,14.32
2022-09-28T10:32:55.174Z,13.88
2022-09-28T10:35:27.153Z,12.80
2022-09-28T10:37:57.996Z,11.02
2022-09-28T10:40:30.568Z,9.38
2022-09-28T10:43:15.647Z,12.38
2022-09-28T10:45:42.214Z,13.00
2022-09-28T10:48:22.550Z,11.52
2022-09-28T10:51:08.075Z,9.82
2022-09-28T10:53:38.596Z,8.98
2022-09-28T10:56:20.210Z,11.15
2022-09-28T10:58:46.670Z,14.88
2022-09-28T11:01:33.430Z,11.80
2022-09-28T11:04:08.016Z,12.02
2022-09-28T11:06:40.251Z,10.37
2022-09-28T11:09:31.122Z,13.68
2022-09-28T11:11:59.781Z,12.65
2022-09-28T11:14:28.914Z,12.70
2022-09-28T11:17:15.082Z,12.77
2022-09-28T11:19:42.224Z,13.75
2022-09-28T11:22:36.397Z,14.35
2022-09-28T11:25:32.239Z,10.70
2022-09-28T11:28:04.516Z,10.95
2022-09-28T11:30:51.956Z,12.32
2022-09-28T11:33:40.037Z,12.07
2022-09-28T11:36:18.338Z,13.77
2022-09-28T11:38:59.772Z,4.90
2022-09-28T11:41:48.432Z,10.57
2022-09-28T11:44:37.244Z,12.32
2022-09-28T11:47:09.886Z,8.55
2022-09-28T11:49:48.280Z,11.18
2022-09-28T11:52:33.009Z,15.57
2022-09-28T11:55:05.015Z,15.02
2022-09-28T11:57:38.555Z,10.60
2022-09-28T12:00:26.000Z,10.98
2022-09-28T12:03:01.367Z,10.38
2022-09-28T12:05:41.976Z,16.35
2022-09-28T12:08:30.252Z,12.57
2022-09-28T12:11:02.793Z,15.63
2022-09-28T12:13:35.258Z,9.40
2022-09-28T12:21:38.160Z,10.05
2022-09-28T12:24:27.920Z,10.90
2022-09-28T12:27:04.630Z,11.73
2022-09-28T12:29:55.108Z,8.68
2022-09-28T12:32:46.514Z,10.07
2022-09-28T12:35:41.208Z,8.98
2022-09-28T12:38:22.465Z,8.93
2022-09-28T12:40:54.839Z,15.05
2022-09-28T12:43:54.598Z,10.35
2022-09-28T12:46:48.791Z,8.27
2022-09-28T12:52:34.903Z,5.25
2022-09-28T12:55:13.007Z,27.58
2022-09-28T12:57:58.269Z,19.20
2022-09-28T13:00:32.205Z,5.90
2022-09-28T13:03:19.091Z,4.85
2022-09-28T13:06:22.807Z,7.47
2022-09-28T13:09:20.352Z,6.25
2022-09-28T13:12:01.848Z,7.38
2022-09-28T13:14:55.188Z,14.65
2022-09-28T13:17:33.958Z,8.45
2022-09-28T13:20:25.080Z,8.27
2022-09-28T13:23:12.610Z,10.95
2022-09-28T13:25:43.980Z,11.07
2022-09-28T13:28:15.511Z,10.32
2022-09-28T13:30:45.177Z,13.85
2022-09-28T13:33:20.049Z,12.57
2022-09-28T13:35:46.646Z,13.10
2022-09-28T13:38:19.089Z,16.52
2022-09-28T13:41:12.797Z,15.85
2022-09-28T13:43:53.494Z,14.15
2022-09-28T13:46:48.019Z,17.05
2022-09-28T13:49:32.652Z,16.90
2022-09-28T13:52:21.839Z,15.57
2022-09-28T13:55:17.635Z,13.70
2022-09-28T13:58:00.484Z,16.40
2022-09-28T14:00:29.690Z,17.33
2022-09-28T14:03:16.818Z,11.05
2022-09-28T14:06:02.900Z,12.05
2022-09-28T14:08:38.421Z,12.00
2022-09-28T14:11:26.970Z,10.70
2022-09-28T14:13:59.337Z,13.48
2022-09-28T14:16:31.893Z,12.43
2022-09-28T14:19:01.304Z,9.73
2022-09-28T14:22:06.278Z,12.18
2022-09-28T14:24:57.428Z,12.00
2022-09-28T14:28:01.137Z,11.63
2022-09-28T14:30:37.898Z,15.82
2022-09-28T14:33:21.920Z,13.77
2022-09-28T14:35:51.575Z,14.77
2022-09-28T14:38:40.998Z,15.63
2022-09-28T14:41:11.285Z,13.48
2022-09-28T14:43:37.652Z,18.15
2022-09-28T14:46:18.914Z,21.55
2022-09-28T14:48:52.656Z,17.90
2022-09-28T14:51:41.906Z,16.08
2022-09-28T14:54:09.204Z,14.50
2022-09-28T14:56:53.924Z,15.90
2022-09-28T14:59:24.751Z,13.35
2022-09-28T15:02:11.300Z,13.52
2022-09-28T15:04:43.538Z,12.25
2022-09-28T15:07:19.439Z,3.72
2022-09-28T15:09:49.604Z,8.90
2022-09-28T15:12:27.540Z,7.45
2022-09-28T15:14:56.277Z,7.82
2022-09-28T15:17:27.071Z,7.32
2022-09-28T15:20:10.934Z,6.22
2022-09-28T15:22:44.608Z,3.95
2022-09-28T15:25:19.286Z,9.32
2022-09-28T15:27:50.529Z,3.53
2022-09-28T15:30:25.398Z,8.85
2022-09-28T15:32:56.547Z,4.80
2022-09-28T15:35:27.038Z,6.80
2022-09-28T15:37:55.108Z,9.52
2022-09-28T15:40:30.725Z,8.45
2022-09-28T15:42:59.416Z,9.10
2022-09-28T15:45:36.674Z,8.23
2022-09-28T15:48:26.149Z,12.00
2022-09-28T15:51:00.802Z,7.50
2022-09-28T15:53:27.993Z,2.38
2022-09-28T15:56:00.634Z,15.13
2022-09-28T15:58:27.344Z,12.93
2022-09-28T16:01:23.718Z,9.70
2022-09-28T16:03:50.225Z,2.03
2022-09-28T16:06:16.779Z,11.95
2022-09-28T16:08:45.315Z,14.23
2022-09-28T16:11:25.887Z,10.95
2022-09-28T16:14:07.969Z,12.75
2022-09-28T16:16:41.123Z,10.98
2022-09-28T16:21:55.729Z,10.23
2022-09-28T16:24:25.616Z,11.63
2022-09-28T16:27:19.697Z,12.32
2022-09-28T16:30:05.205Z,9.90
2022-09-28T16:32:45.729Z,13.45
2022-09-28T16:35:29.066Z,10.40
2022-09-28T16:38:09.400Z,11.20
2022-09-28T16:40:40.419Z,10.75
2022-09-28T16:43:08.826Z,12.35
2022-09-28T16:45:35.324Z,15.85
2022-09-28T16:48:03.045Z,14.40
2022-09-28T16:50:29.526Z,14.50
2022-09-28T16:53:18.376Z,10.77
2022-09-28T16:55:46.690Z,15.52
2022-09-28T16:58:13.318Z,3.03
2022-09-28T17:00:41.601Z,7.90
2022-09-28T17:03:17.669Z,11.77
2022-09-28T17:05:45.454Z,4.07
2022-09-28T17:08:17.355Z,2.53
2022-09-28T17:13:41.278Z,8.85
2022-09-28T17:16:17.984Z,3.00
2022-09-28T17:18:46.029Z,4.28
2022-09-28T17:21:15.844Z,6.32
2022-09-28T17:23:43.557Z,6.97
2022-09-28T17:26:31.734Z,6.13
2022-09-28T17:29:01.956Z,3.72
2022-09-28T17:31:29.889Z,4.20
2022-09-28T17:33:56.605Z,4.75
2022-09-28T17:36:23.584Z,6.90
2022-09-28T17:38:51.737Z,10.55
2022-09-28T17:41:20.816Z,8.13
2022-09-28T17:43:48.704Z,3.53
2022-09-28T17:46:31.371Z,0.30
2022-09-28T17:48:59.959Z,8.52
2022-09-28T17:51:28.295Z,7.03
2022-09-28T17:53:56.167Z,6.47
2022-09-28T17:56:26.397Z,3.67
2022-09-28T17:58:57.749Z,5.45
2022-09-28T18:01:24.385Z,2.83
2022-09-28T18:03:50.892Z,7.30
2022-09-28T18:06:22.692Z,11.43
2022-09-28T18:08:49.828Z,7.93
2022-09-28T18:11:17.363Z,12.02
2022-09-28T18:13:45.951Z,5.95
2022-09-28T18:16:13.721Z,7.30
2022-09-28T18:18:41.399Z,3.85
2022-09-28T18:21:08.444Z,8.18
2022-09-28T18:23:36.755Z,8.73
2022-09-28T18:26:03.997Z,9.77
2022-09-28T18:28:31.182Z,8.65
2022-09-28T18:30:57.765Z,7.95
2022-09-28T18:33:24.283Z,7.93
2022-09-28T18:35:54.801Z,6.10
2022-09-28T18:38:21.592Z,9.93
2022-09-28T18:40:48.405Z,12.40
2022-09-28T18:43:15.337Z,13.48
2022-09-28T18:45:41.741Z,9.00
2022-09-28T18:48:08.194Z,13.63
2022-09-28T18:50:35.165Z,9.23
2022-09-28T18:53:11.835Z,11.25
2022-09-28T18:55:42.653Z,11.32
2022-09-28T18:58:10.481Z,11.35
2022-09-28T19:00:41.920Z,14.90
2022-09-28T19:03:11.046Z,16.15
2022-09-28T19:05:44.117Z,12.55
2022-09-28T19:08:10.590Z,14.82
2022-09-28T19:10:37.148Z,17.67
2022-09-28T19:13:03.681Z,14.98
2022-09-28T19:15:30.211Z,14.65
2022-09-28T19:17:57.097Z,17.70
2022-09-28T19:20:23.609Z,24.55
2022-09-28T19:22:50.976Z,30.23
2022-09-28T19:25:17.474Z,17.35
2022-09-28T19:27:45.418Z,16.30
2022-09-28T19:30:12.522Z,12.98
2022-09-28T19:32:39.245Z,17.48
2022-09-28T19:35:05.805Z,30.20
2022-09-28T19:37:35.363Z,31.65
2022-09-28T19:40:03.821Z,30.15
2022-09-28T19:42:30.250Z,20.33
2022-09-28T19:44:57.210Z,38.35
2022-09-28T19:47:23.688Z,24.35
2022-09-28T19:49:50.118Z,22.75
2022-09-28T19:52:17.246Z,17.45
2022-09-28T19:54:58.127Z,17.30
2022-09-28T19:57:27.776Z,17.70
2022-09-28T19:59:59.241Z,15.70
2022-09-28T20:02:28.696Z,15.40
2022-09-28T20:04:55.372Z,14.40
2022-09-28T20:07:21.896Z,14.07
2022-09-28T20:09:48.361Z,11.80
2022-09-28T20:12:14.831Z,15.25
2022-09-28T20:14:41.293Z,13.32
2022-09-28T20:17:08.016Z,13.82
2022-09-28T20:19:35.050Z,16.77
2022-09-28T20:22:02.862Z,18.10
2022-09-28T20:24:29.843Z,18.33
2022-09-28T20:26:56.402Z,23.30
2022-09-28T20:29:24.265Z,22.30
2022-09-28T20:31:51.719Z,20.33
2022-09-28T20:34:18.373Z,21.10
2022-09-28T20:36:44.847Z,22.35
2022-09-28T20:39:12.038Z,19.27
2022-09-28T20:41:38.662Z,21.02
2022-09-28T20:44:14.288Z,21.70
2022-09-28T20:46:40.927Z,20.92
2022-09-28T20:49:07.767Z,21.38
2022-09-28T20:51:34.412Z,18.08
2022-09-28T20:54:01.065Z,19.08
2022-09-28T20:56:28.884Z,16.48
2022-09-28T20:58:56.820Z,18.75
2022-09-28T21:01:28.566Z,17.80
2022-09-28T21:03:57.614Z,16.35
2022-09-28T21:06:29.758Z,18.90
2022-09-28T21:08:56.494Z,18.55
2022-09-28T21:11:24.504Z,16.42
2022-09-28T21:13:57.074Z,18.95
2022-09-28T21:16:23.956Z,17.20
2022-09-28T21:18:50.515Z,16.90
2022-09-28T21:21:19.085Z,21.45
2022-09-28T21:23:45.976Z,16.70
2022-09-28T21:26:15.882Z,18.25
2022-09-28T21:28:44.734Z,17.85
2022-09-28T21:31:12.821Z,15.85
2022-09-28T21:33:39.399Z,18.35
2022-09-28T21:36:07.683Z,17.70
2022-09-28T21:38:34.971Z,14.88
2022-09-28T21:41:01.763Z,16.25
2022-09-28T21:43:30.205Z,18.48
2022-09-28T21:45:58.113Z,16.02
2022-09-28T21:48:26.700Z,17.25
2022-09-28T21:51:04.268Z,18.83
2022-09-28T21:53:36.280Z,20.40
2022-09-28T21:56:05.605Z,14.63
2022-09-28T21:58:33.960Z,15.50
2022-09-28T22:01:05.822Z,17.15
2022-09-28T22:03:33.939Z,18.38
2022-09-28T22:06:00.759Z,17.45
2022-09-28T22:08:27.465Z,19.90
2022-09-28T22:11:02.554Z,17.27
2022-09-28T22:13:30.220Z,20.27
2022-09-28T22:16:00.693Z,15.95
2022-09-28T22:18:29.451Z,20.92
2022-09-28T22:21:23.011Z,15.40
2022-09-28T22:23:49.899Z,18.50
2022-09-28T22:26:18.953Z,19.88
2022-09-28T22:28:50.735Z,17.98
2022-09-28T22:31:19.652Z,20.75
2022-09-28T22:33:46.227Z,15.30
2022-09-28T22:36:16.663Z,19.48
2022-09-28T22:38:44.630Z,21.20
2022-09-28T22:41:11.659Z,18.38
2022-09-28T22:43:38.182Z,17.38
2022-09-28T22:46:25.182Z,19.77
2022-09-28T22:48:56.814Z,17.55
2022-09-28T22:51:24.778Z,17.65
2022-09-28T22:53:51.306Z,16.63
2022-09-28T22:56:19.185Z,20.48
2022-09-28T22:58:46.659Z,17.38
2022-09-28T23:01:17.339Z,17.10
2022-09-28T23:03:44.754Z,18.60
2022-09-28T23:06:13.527Z,17.63
2022-09-28T23:08:40.025Z,19.40
2022-09-28T23:11:06.890Z,20.77
2022-09-28T23:13:33.593Z,16.50
2022-09-28T23:16:02.659Z,18.08
2022-09-28T23:18:31.561Z,20.00
2022-09-28T23:21:00.580Z,17.45
2022-09-28T23:23:27.549Z,18.63
2022-09-28T23:25:54.986Z,19.77
2022-09-28T23:28:23.415Z,18.83
2022-09-28T23:30:51.117Z,19.52
2022-09-28T23:33:18.930Z,23.27
2022-09-28T23:35:45.859Z,17.95
2022-09-28T23:38:13.632Z,16.65
2022-09-28T23:40:41.299Z,19.25
2022-09-28T23:43:09.247Z,18.00
2022-09-28T23:45:36.070Z,19.13
2022-09-28T23:48:03.075Z,20.40
2022-09-28T23:50:29.658Z,22.40
2022-09-28T23:52:56.181Z,23.27
2022-09-28T23:55:22.751Z,17.52
2022-09-28T23:57:49.212Z,20.85
